createdAt,value
2022-09-26T00:01:36.163Z,2.08
2022-09-26T00:04:30.369Z,2.78
2022-09-26T00:06:59.834Z,2.67
2022-09-26T00:09:28.657Z,2.83
2022-09-26T00:11:56.173Z,3.35
2022-09-26T00:14:27.061Z,2.83
2022-09-26T00:16:54.965Z,2.83
2022-09-26T00:19:23.062Z,3.00
2022-09-26T00:21:50.313Z,2.72
2022-09-26T00:24:17.979Z,1.80
2022-09-26T00:26:45.303Z,2.13
2022-09-26T00:29:13.955Z,2.78
2022-09-26T00:31:46.151Z,2.53
2022-09-26T00:34:15.749Z,2.55
2022-09-26T00:36:43.123Z,3.03
2022-09-26T00:39:13.642Z,4.45
2022-09-26T00:41:41.052Z,2.28
2022-09-26T00:44:33.145Z,3.78
2022-09-26T00:47:00.693Z,2.92
2022-09-26T00:49:38.456Z,1.60
2022-09-26T00:52:14.770Z,2.40
2022-09-26T00:54:46.265Z,2.45
2022-09-26T00:57:19.128Z,2.00
2022-09-26T00:59:51.133Z,3.03
2022-09-26T01:02:19.101Z,3.28
2022-09-26T01:04:47.734Z,2.30
2022-09-26T01:07:23.560Z,2.15
2022-09-26T01:09:51.429Z,2.63
2022-09-26T01:12:20.724Z,3.38
2022-09-26T01:14:50.663Z,2.78
2022-09-26T01:17:18.369Z,3.03
2022-09-26T01:19:51.559Z,4.15
2022-09-26T01:22:28.046Z,2.90
2022-09-26T01:25:16.146Z,3.55
2022-09-26T01:27:57.171Z,2.28
2022-09-26T01:30:29.168Z,3.08
2022-09-26T01:33:08.405Z,2.75
2022-09-26T01:36:01.940Z,2.88
2022-09-26T01:38:43.286Z,2.88
2022-09-26T01:41:32.971Z,2.53
2022-09-26T01:44:27.642Z,2.40
2022-09-26T01:47:09.357Z,3.00
2022-09-26T01:50:01.110Z,2.70
2022-09-26T01:52:54.698Z,2.65
2022-09-26T01:55:24.809Z,2.53
2022-09-26T01:58:03.614Z,1.80
2022-09-26T02:00:33.127Z,2.22
2022-09-26T02:03:02.904Z,2.97
2022-09-26T02:05:52.275Z,2.58
2022-09-26T02:08:27.866Z,2.72
2022-09-26T02:11:13.049Z,3.00
2022-09-26T02:13:51.884Z,2.03
2022-09-26T02:16:26.099Z,2.28
2022-09-26T02:19:16.310Z,2.63
2022-09-26T02:21:44.621Z,2.10
2022-09-26T02:24:12.027Z,1.77
2022-09-26T02:26:41.262Z,1.52
2022-09-26T02:29:09.821Z,2.15
2022-09-26T02:31:43.955Z,2.33
2022-09-26T02:34:11.398Z,3.33
2022-09-26T02:36:38.823Z,2.30
2022-09-26T02:39:06.236Z,2.20
2022-09-26T02:41:47.259Z,2.15
2022-09-26T02:44:32.956Z,2.58
2022-09-26T02:47:17.350Z,2.13
2022-09-26T02:49:59.351Z,1.33
2022-09-26T02:52:53.158Z,1.92
2022-09-26T02:55:31.749Z,2.97
2022-09-26T02:58:28.532Z,2.92
2022-09-26T03:01:20.941Z,2.08
2022-09-26T03:03:59.609Z,1.83
2022-09-26T03:06:32.864Z,1.85
2022-09-26T03:09:02.119Z,2.00
2022-09-26T03:11:30.367Z,1.92
2022-09-26T03:13:59.588Z,1.73
2022-09-26T03:16:31.246Z,2.22
2022-09-26T03:19:19.425Z,2.15
2022-09-26T03:21:47.264Z,1.42
2022-09-26T03:24:14.602Z,1.55
2022-09-26T03:26:42.589Z,1.73
2022-09-26T03:29:09.896Z,2.65
2022-09-26T03:31:37.232Z,2.33
2022-09-26T03:34:04.511Z,1.77
2022-09-26T03:36:32.299Z,2.88
2022-09-26T03:38:59.561Z,2.60
2022-09-26T03:41:26.879Z,1.92
2022-09-26T03:43:55.883Z,1.20
2022-09-26T03:46:24.358Z,2.00
2022-09-26T03:48:52.054Z,1.40
2022-09-26T03:51:21.080Z,1.55
2022-09-26T03:53:48.315Z,2.40
2022-09-26T03:56:19.987Z,3.25
2022-09-26T03:58:49.149Z,2.28
2022-09-26T04:01:21.450Z,1.65
2022-09-26T04:03:51.090Z,2.00
2022-09-26T04:06:21.121Z,1.98
2022-09-26T04:08:50.762Z,1.90
2022-09-26T04:11:20.359Z,1.92
2022-09-26T04:13:53.490Z,2.47
2022-09-26T04:16:23.259Z,2.13
2022-09-26T04:18:55.769Z,2.20
2022-09-26T04:21:23.195Z,2.17
2022-09-26T04:23:50.434Z,1.55
2022-09-26T04:26:23.258Z,2.65
2022-09-26T04:28:52.327Z,2.60
2022-09-26T04:31:21.704Z,2.55
2022-09-26T04:33:49.463Z,3.00
2022-09-26T04:36:17.730Z,5.68
2022-09-26T04:38:45.172Z,3.92
2022-09-26T04:41:15.919Z,2.20
2022-09-26T04:43:43.492Z,4.05
2022-09-26T04:46:20.771Z,4.80
2022-09-26T04:48:51.499Z,4.72
2022-09-26T04:51:20.536Z,2.47
2022-09-26T04:53:48.587Z,3.70
2022-09-26T04:56:17.206Z,3.10
2022-09-26T04:58:45.475Z,2.13
2022-09-26T05:01:15.172Z,4.22
2022-09-26T05:03:42.631Z,4.97
2022-09-26T05:06:11.108Z,3.85
2022-09-26T05:08:44.230Z,4.60
2022-09-26T05:11:11.562Z,3.40
2022-09-26T05:13:38.915Z,5.68
2022-09-26T05:16:08.736Z,3.05
2022-09-26T05:18:37.499Z,3.13
2022-09-26T05:21:06.557Z,2.72
2022-09-26T05:23:52.938Z,2.30
2022-09-26T05:26:23.275Z,1.70
2022-09-26T05:28:55.252Z,2.45
2022-09-26T05:31:25.345Z,2.47
2022-09-26T05:33:52.977Z,2.20
2022-09-26T05:36:20.356Z,2.72
2022-09-26T05:38:47.643Z,1.92
2022-09-26T05:41:15.117Z,1.80
2022-09-26T05:43:42.534Z,3.25
2022-09-26T05:46:11.168Z,2.60
2022-09-26T05:48:40.305Z,2.90
2022-09-26T05:51:12.505Z,2.78
2022-09-26T05:53:45.614Z,2.17
2022-09-26T05:56:18.566Z,1.60
2022-09-26T05:58:46.631Z,5.03
2022-09-26T06:01:16.225Z,1.48
2022-09-26T06:03:45.253Z,1.40
2022-09-26T06:06:16.131Z,1.27
2022-09-26T06:08:44.135Z,1.25
2022-09-26T06:11:14.391Z,1.92
2022-09-26T06:13:46.647Z,2.35
2022-09-26T06:16:18.322Z,1.90
2022-09-26T06:18:50.583Z,2.08
2022-09-26T06:21:19.080Z,1.58
2022-09-26T06:23:46.677Z,1.85
2022-09-26T06:26:22.729Z,1.75
2022-09-26T06:28:58.222Z,4.28
2022-09-26T06:31:26.171Z,2.30
2022-09-26T06:33:54.330Z,2.15
2022-09-26T06:36:22.922Z,2.50
2022-09-26T06:38:50.805Z,2.03
2022-09-26T06:41:18.334Z,1.63
2022-09-26T06:43:46.496Z,1.85
2022-09-26T06:46:16.094Z,1.73
2022-09-26T06:48:43.487Z,1.10
2022-09-26T06:51:14.002Z,1.08
2022-09-26T06:53:42.619Z,1.98
2022-09-26T06:56:10.163Z,2.67
2022-09-26T06:58:37.946Z,1.90
2022-09-26T07:01:06.699Z,2.08
2022-09-26T07:03:34.173Z,1.58
2022-09-26T07:06:01.402Z,1.30
2022-09-26T07:08:50.446Z,2.35
2022-09-26T07:11:42.151Z,1.65
2022-09-26T07:14:03.211Z,1.63
2022-09-26T07:16:31.094Z,1.80
2022-09-26T07:18:58.642Z,2.95
2022-09-26T07:21:25.916Z,1.55
2022-09-26T07:23:58.503Z,2.80
2022-09-26T07:26:25.793Z,1.58
2022-09-26T07:28:54.848Z,2.22
2022-09-26T07:31:23.650Z,2.78
2022-09-26T07:33:51.028Z,2.05
2022-09-26T07:36:18.519Z,1.70
2022-09-26T07:38:48.606Z,1.40
2022-09-26T07:41:17.033Z,1.52
2022-09-26T07:46:50.633Z,2.03
2022-09-26T07:49:36.638Z,1.23
2022-09-26T07:52:03.855Z,2.60
2022-09-26T07:54:31.390Z,1.45
2022-09-26T07:56:58.984Z,1.33
2022-09-26T07:59:26.375Z,2.08
2022-09-26T08:01:54.597Z,1.48
2022-09-26T08:04:21.911Z,1.63
2022-09-26T08:06:50.099Z,1.45
2022-09-26T08:09:17.419Z,2.78
2022-09-26T08:11:45.263Z,1.75
2022-09-26T08:14:12.806Z,2.15
2022-09-26T08:16:41.626Z,2.88
2022-09-26T08:19:12.775Z,1.30
2022-09-26T08:21:40.107Z,2.72
2022-09-26T08:24:07.370Z,1.55
2022-09-26T08:26:40.449Z,3.00
2022-09-26T08:29:12.630Z,1.77
2022-09-26T08:31:40.052Z,2.13
2022-09-26T08:34:10.210Z,1.50
2022-09-26T08:36:37.777Z,1.88
2022-09-26T08:39:05.605Z,2.08
2022-09-26T08:42:02.190Z,1.67
2022-09-26T08:44:54.029Z,1.88
2022-09-26T08:47:48.811Z,2.17
2022-09-26T08:50:42.210Z,1.63
2022-09-26T08:53:15.904Z,1.20
2022-09-26T08:55:46.842Z,2.67
2022-09-26T08:58:37.810Z,3.05
2022-09-26T09:01:19.421Z,1.80
2022-09-26T09:04:14.770Z,1.50
2022-09-26T09:09:16.326Z,1.60
2022-09-26T09:12:13.638Z,1.90
2022-09-26T09:15:24.500Z,1.83
2022-09-26T09:17:53.167Z,1.92
2022-09-26T09:20:29.853Z,1.77
2022-09-26T09:23:15.906Z,1.40
2022-09-26T09:29:04.596Z,1.80
2022-09-26T09:31:38.670Z,1.52
2022-09-26T09:34:17.680Z,1.75
2022-09-26T09:36:55.665Z,1.80
2022-09-26T09:39:28.820Z,1.42
2022-09-26T09:42:01.650Z,1.30
2022-09-26T09:45:13.142Z,1.40
2022-09-26T09:47:40.961Z,2.25
2022-09-26T09:50:56.709Z,1.92
2022-09-26T09:53:35.843Z,0.80
2022-09-26T09:56:29.553Z,1.33
2022-09-26T09:59:26.458Z,2.22
2022-09-26T10:02:11.115Z,1.27
2022-09-26T10:04:46.796Z,1.67
2022-09-26T10:07:14.166Z,2.05
2022-09-26T10:09:44.072Z,1.80
2022-09-26T10:12:23.721Z,2.67
2022-09-26T10:14:55.853Z,1.40
2022-09-26T10:17:24.508Z,1.83
2022-09-26T10:19:52.396Z,1.35
2022-09-26T10:22:37.871Z,1.38
2022-09-26T10:25:22.514Z,2.00
2022-09-26T10:27:55.388Z,2.65
2022-09-26T10:30:28.541Z,1.83
2022-09-26T10:32:59.699Z,0.90
2022-09-26T10:35:44.797Z,1.05
2022-09-26T10:38:27.481Z,2.40
2022-09-26T10:40:59.317Z,2.15
2022-09-26T10:43:30.842Z,2.22
2022-09-26T10:46:14.638Z,1.95
2022-09-26T10:48:52.562Z,1.65
2022-09-26T10:51:36.034Z,2.22
2022-09-26T10:54:16.358Z,1.85
2022-09-26T10:56:59.475Z,2.17
2022-09-26T10:59:31.524Z,2.63
2022-09-26T11:02:02.530Z,1.27
2022-09-26T11:04:51.914Z,1.92
2022-09-26T11:07:25.401Z,1.35
2022-09-26T11:10:02.156Z,0.70
2022-09-26T11:12:31.806Z,1.48
2022-09-26T11:15:05.770Z,1.23
2022-09-26T11:17:48.610Z,2.17
2022-09-26T11:20:38.185Z,0.82
2022-09-26T11:23:43.178Z,1.35
2022-09-26T11:26:33.587Z,1.25
2022-09-26T11:29:14.568Z,1.45
2022-09-26T11:31:44.152Z,2.58
2022-09-26T11:34:21.915Z,1.20
2022-09-26T11:37:13.194Z,0.77
2022-09-26T11:40:07.184Z,2.67
2022-09-26T11:42:47.122Z,0.70
2022-09-26T11:45:23.810Z,0.90
2022-09-26T11:48:06.823Z,0.70
2022-09-26T11:50:58.673Z,1.38
2022-09-26T11:53:54.607Z,1.23
2022-09-26T12:40:10.220Z,2.00
2022-09-26T12:43:05.420Z,0.50
2022-09-26T12:45:50.984Z,0.73
2022-09-26T12:48:49.065Z,1.80
2022-09-26T12:51:29.961Z,1.08
2022-09-26T12:54:27.481Z,1.23
2022-09-26T12:57:06.835Z,1.48
2022-09-26T12:59:52.758Z,1.08
2022-09-26T13:02:38.266Z,1.10
2022-09-26T13:05:15.455Z,1.80
2022-09-26T13:08:02.946Z,3.25
2022-09-26T13:10:50.529Z,1.98
2022-09-26T13:13:48.026Z,1.95
2022-09-26T13:16:53.717Z,1.08
2022-09-26T13:22:27.687Z,2.15
2022-09-26T13:25:01.848Z,3.53
2022-09-26T13:27:36.250Z,4.03
2022-09-26T13:30:13.124Z,1.27
2022-09-26T13:33:25.236Z,1.48
2022-09-26T13:35:56.249Z,2.88
2022-09-26T13:38:47.871Z,0.80
2022-09-26T13:41:33.219Z,2.70
2022-09-26T13:44:09.038Z,3.95
2022-09-26T13:47:06.453Z,2.88
2022-09-26T13:49:52.241Z,2.58
2022-09-26T13:52:34.295Z,2.28
2022-09-26T13:55:19.311Z,2.13
2022-09-26T13:58:06.764Z,1.55
2022-09-26T14:00:37.002Z,3.17
2022-09-26T14:03:16.709Z,2.47
2022-09-26T14:05:47.856Z,1.77
2022-09-26T14:08:54.283Z,2.25
2022-09-26T14:11:24.762Z,2.65
2022-09-26T14:14:17.824Z,2.55
2022-09-26T14:16:49.752Z,1.88
2022-09-26T14:19:19.636Z,2.30
2022-09-26T14:21:58.787Z,3.50
2022-09-26T14:24:33.774Z,1.83
2022-09-26T14:27:37.502Z,1.95
2022-09-26T14:30:24.804Z,2.35
2022-09-26T14:32:59.192Z,2.60
2022-09-26T14:35:32.438Z,3.78
2022-09-26T14:38:20.008Z,2.90
2022-09-26T14:40:58.775Z,4.13
2022-09-26T14:43:30.264Z,3.50
2022-09-26T14:46:16.422Z,5.20
2022-09-26T14:48:44.587Z,5.53
2022-09-26T14:51:12.272Z,2.75
2022-09-26T14:53:48.732Z,3.58
2022-09-26T14:56:17.779Z,3.25
2022-09-26T14:58:47.170Z,2.08
2022-09-26T15:01:36.737Z,3.83
2022-09-26T15:04:16.863Z,4.10
2022-09-26T15:06:50.286Z,2.63
2022-09-26T15:09:45.120Z,3.42
2022-09-26T15:12:39.196Z,6.57
2022-09-26T15:15:23.061Z,6.43
2022-09-26T15:17:56.412Z,3.78
2022-09-26T15:20:32.796Z,5.95
2022-09-26T15:23:01.295Z,2.83
2022-09-26T15:25:32.969Z,2.50
2022-09-26T15:28:01.334Z,3.20
2022-09-26T15:30:37.464Z,4.18
2022-09-26T15:33:05.998Z,4.22
2022-09-26T15:35:33.965Z,2.33
2022-09-26T15:38:11.556Z,3.72
2022-09-26T15:40:38.985Z,6.80
2022-09-26T15:43:22.473Z,4.68
2022-09-26T15:45:56.424Z,4.38
2022-09-26T15:48:29.526Z,3.00
2022-09-26T15:51:11.213Z,2.38
2022-09-26T15:53:41.330Z,4.32
2022-09-26T15:56:13.394Z,5.03
2022-09-26T15:58:46.682Z,7.45
2022-09-26T16:01:20.283Z,4.68
2022-09-26T16:03:55.103Z,4.23
2022-09-26T16:06:24.855Z,5.10
2022-09-26T16:09:12.681Z,12.55
2022-09-26T16:11:47.600Z,6.90
2022-09-26T16:14:46.844Z,10.60
2022-09-26T16:17:26.610Z,3.50
2022-09-26T16:20:01.861Z,7.05
2022-09-26T16:22:45.711Z,6.93
2022-09-26T16:25:19.048Z,8.63
2022-09-26T16:27:51.930Z,16.15
2022-09-26T16:30:28.181Z,11.90
2022-09-26T16:33:13.272Z,11.82
2022-09-26T16:35:48.141Z,11.07
2022-09-26T16:38:32.278Z,9.73
2022-09-26T16:41:08.117Z,9.98
2022-09-26T16:43:37.444Z,7.03
2022-09-26T16:46:17.669Z,6.30
2022-09-26T16:48:50.779Z,8.05
2022-09-26T16:51:22.138Z,7.40
2022-09-26T16:53:58.482Z,46.17
2022-09-26T16:56:27.401Z,16.65
2022-09-26T16:58:58.148Z,38.90
2022-09-26T17:01:44.832Z,26.85
2022-09-26T17:04:19.509Z,20.75
2022-09-26T17:09:23.235Z,11.13
2022-09-26T17:11:53.276Z,12.45
2022-09-26T17:14:23.816Z,16.88
2022-09-26T17:16:56.569Z,11.35
2022-09-26T17:19:27.189Z,8.07
2022-09-26T17:21:54.973Z,16.52
2022-09-26T17:24:25.075Z,7.78
2022-09-26T17:27:04.622Z,12.77
2022-09-26T17:29:40.000Z,10.10
2022-09-26T17:32:25.086Z,10.23
2022-09-26T17:34:52.404Z,13.15
2022-09-26T17:37:21.939Z,6.28
2022-09-26T17:39:49.304Z,11.00
2022-09-26T17:42:17.270Z,10.50
2022-09-26T17:44:48.406Z,9.25
2022-09-26T17:47:17.335Z,6.22
2022-09-26T17:49:51.031Z,5.72
2022-09-26T17:52:31.547Z,8.93
2022-09-26T18:00:21.485Z,10.73
2022-09-26T18:02:57.252Z,8.02
2022-09-26T18:05:28.494Z,5.20
2022-09-26T18:08:01.825Z,8.45
2022-09-26T18:10:33.845Z,9.93
2022-09-26T18:13:12.741Z,6.80
2022-09-26T18:18:19.311Z,7.38
2022-09-26T18:20:48.745Z,9.07
2022-09-26T18:23:29.123Z,5.75
2022-09-26T18:36:51.906Z,6.78
2022-09-26T19:24:47.197Z,6.18
2022-09-26T20:26:46.608Z,5.47
2022-09-26T20:38:49.909Z,10.00
2022-09-26T20:50:04.652Z,9.93
2022-09-26T22:18:38.968Z,2.77
2022-09-26T23:25:54.310Z,2.03
2022-09-26T23:53:15.674Z,2.08
2022-09-26T23:55:43.385Z,2.13
2022-09-26T23:58:11.098Z,1.27
